createdAt,value
2019-04-20T00:01:28.309Z,38.70
2019-04-20T00:03:47.387Z,39.50
2019-04-20T00:06:11.176Z,38.50
2019-04-20T00:08:36.122Z,39.00
2019-04-20T00:11:07.336Z,39.30
2019-04-20T00:13:32.502Z,39.80
2019-04-20T00:15:45.094Z,39.80
2019-04-20T00:18:08.558Z,40.00
2019-04-20T00:20:34.027Z,40.10
2019-04-20T00:22:59.680Z,40.50
2019-04-20T00:25:53.236Z,40.70
2019-04-20T00:28:24.026Z,41.10
2019-04-20T00:30:50.401Z,41.50
2019-04-20T00:33:01.772Z,41.60
2019-04-20T00:35:16.875Z,41.80
2019-04-20T00:37:38.557Z,41.80
2019-04-20T00:39:59.974Z,41.80
2019-04-20T00:42:31.155Z,41.80
2019-04-20T00:44:49.607Z,41.80
2019-04-20T00:47:20.057Z,41.80
2019-04-20T00:49:45.433Z,42.30
2019-04-20T00:52:25.325Z,42.50
2019-04-20T00:54:18.541Z,43.10
2019-04-20T00:56:41.329Z,42.80
2019-04-20T00:59:15.648Z,42.80
2019-04-20T01:01:50.258Z,43.20
2019-04-20T01:04:13.195Z,43.20
2019-04-20T01:06:31.488Z,43.80
2019-04-20T01:08:40.323Z,43.80
2019-04-20T01:11:02.721Z,43.90
2019-04-20T01:13:26.891Z,44.60
2019-04-20T01:15:56.309Z,44.40
2019-04-20T01:18:13.872Z,44.70
2019-04-20T01:20:36.494Z,44.80
2019-04-20T01:23:04.859Z,44.70
2019-04-20T01:25:27.213Z,44.70
2019-04-20T01:28:06.596Z,44.90
2019-04-20T01:30:18.702Z,45.30
2019-04-20T01:32:50.766Z,45.50
2019-04-20T01:35:12.111Z,45.70
2019-04-20T01:37:34.187Z,46.10
2019-04-20T01:39:51.982Z,46.80
2019-04-20T01:42:08.695Z,47.40
2019-04-20T01:44:36.261Z,48.40
2019-04-20T01:46:58.196Z,50.00
2019-04-20T01:49:21.066Z,51.90
2019-04-20T01:51:53.807Z,51.90
2019-04-20T01:54:23.422Z,51.70
2019-04-20T01:56:45.947Z,51.70
2019-04-20T01:59:16.349Z,51.80
2019-04-20T02:01:31.442Z,52.60
2019-04-20T02:04:01.913Z,52.30
2019-04-20T02:06:30.051Z,53.10
2019-04-20T02:08:58.410Z,53.20
2019-04-20T02:11:23.068Z,53.70
2019-04-20T02:13:44.399Z,53.70
2019-04-20T02:16:12.556Z,53.70
2019-04-20T02:18:39.251Z,53.70
2019-04-20T02:21:09.682Z,53.70
2019-04-20T02:23:24.951Z,53.60
2019-04-20T02:25:35.730Z,53.90
2019-04-20T02:28:15.316Z,53.70
2019-04-20T02:31:00.029Z,53.70
2019-04-20T02:35:54.423Z,53.80
2019-04-20T02:38:42.607Z,53.80
2019-04-20T02:40:47.737Z,53.90
2019-04-20T02:43:09.627Z,54.20
2019-04-20T02:47:53.619Z,55.20
2019-04-20T02:50:15.548Z,55.50
2019-04-20T02:52:49.233Z,55.20
2019-04-20T02:55:04.655Z,55.00
2019-04-20T03:00:03.359Z,55.00
2019-04-20T03:01:59.321Z,54.80
2019-04-20T03:04:06.547Z,55.40
2019-04-20T03:06:36.094Z,55.00
2019-04-20T03:09:17.417Z,54.40
2019-04-20T03:11:45.304Z,54.30
2019-04-20T03:13:59.397Z,54.20
2019-04-20T03:16:17.754Z,54.90
2019-04-20T03:18:41.574Z,54.30
2019-04-20T03:21:15.043Z,54.20
2019-04-20T03:23:35.646Z,54.30
2019-04-20T03:26:05.376Z,54.20
2019-04-20T03:28:44.076Z,54.30
2019-04-20T03:36:07.108Z,55.00
2019-04-20T03:38:21.962Z,54.90
2019-04-20T03:40:37.447Z,54.70
2019-04-20T03:42:48.604Z,54.80
2019-04-20T03:45:15.015Z,54.70
2019-04-20T03:47:47.810Z,54.60
2019-04-20T03:50:18.514Z,54.70
2019-04-20T03:52:36.251Z,54.80
2019-04-20T03:55:14.820Z,54.70
2019-04-20T03:57:46.457Z,54.90
2019-04-20T04:00:24.915Z,54.50
2019-04-20T04:03:03.333Z,54.60
2019-04-20T04:05:13.465Z,54.50
2019-04-20T04:07:30.369Z,54.40
2019-04-20T04:09:58.641Z,54.50
2019-04-20T04:12:46.764Z,54.40
2019-04-20T04:15:08.476Z,54.40
2019-04-20T04:17:36.699Z,54.40
2019-04-20T04:20:01.688Z,54.30
2019-04-20T04:22:31.636Z,54.40
2019-04-20T04:24:56.291Z,54.30
2019-04-20T04:27:22.446Z,53.90
2019-04-20T04:29:48.614Z,53.80
2019-04-20T04:32:46.815Z,53.90
2019-04-20T04:34:36.225Z,53.80
2019-04-20T04:37:00.338Z,53.50
2019-04-20T04:39:27.973Z,53.20
2019-04-20T04:41:39.931Z,52.80
2019-04-20T04:44:04.575Z,52.90
2019-04-20T04:46:12.427Z,52.90
2019-04-20T04:48:40.328Z,53.20
2019-04-20T04:51:03.190Z,53.10
2019-04-20T04:53:33.238Z,53.40
2019-04-20T04:55:52.911Z,53.20
2019-04-20T04:58:08.531Z,53.20
2019-04-20T05:00:33.037Z,53.30
2019-04-20T05:02:59.032Z,53.30
2019-04-20T05:05:45.365Z,53.20
2019-04-20T05:08:00.379Z,53.00
2019-04-20T05:10:12.033Z,53.20
2019-04-20T05:12:35.386Z,52.50
2019-04-20T05:15:06.068Z,52.30
2019-04-20T05:17:40.652Z,52.30
2019-04-20T05:20:02.586Z,53.00
2019-04-20T05:22:35.169Z,52.60
2019-04-20T05:24:59.685Z,52.50
2019-04-20T05:27:42.058Z,52.80
2019-04-20T05:29:42.653Z,52.50
2019-04-20T05:32:12.441Z,52.40
2019-04-20T05:34:54.044Z,52.40
2019-04-20T05:37:24.472Z,52.50
2019-04-20T05:39:54.141Z,52.20
2019-04-20T05:41:51.512Z,52.00
2019-04-20T05:44:16.959Z,52.10
2019-04-20T05:46:48.245Z,51.40
2019-04-20T05:49:08.961Z,50.90
2019-04-20T05:51:35.280Z,50.50
2019-04-20T05:53:58.779Z,50.00
2019-04-20T05:56:18.187Z,50.00
2019-04-20T05:58:44.829Z,50.00
2019-04-20T06:01:08.533Z,50.10
2019-04-20T06:03:28.977Z,49.40
2019-04-20T06:06:02.423Z,48.60
2019-04-20T06:08:30.375Z,48.90
2019-04-20T06:10:45.105Z,47.60
2019-04-20T06:13:17.503Z,47.70
2019-04-20T06:15:50.570Z,47.40
2019-04-20T06:18:13.597Z,46.60
2019-04-20T06:20:43.899Z,47.30
2019-04-20T06:23:24.498Z,47.70
2019-04-20T06:28:20.707Z,46.10
2019-04-20T06:30:37.159Z,45.60
2019-04-20T06:34:01.349Z,44.60
2019-04-20T06:36:32.200Z,44.10
2019-04-20T06:38:49.451Z,43.40
2019-04-20T06:41:10.488Z,43.40
2019-04-20T06:43:30.438Z,42.10
2019-04-20T06:45:51.104Z,42.10
2019-04-20T06:48:12.208Z,41.70
2019-04-20T06:50:28.874Z,41.60
2019-04-20T06:53:18.796Z,40.90
2019-04-20T06:55:39.934Z,40.40
2019-04-20T06:58:30.645Z,40.50
2019-04-20T07:00:20.883Z,40.60
2019-04-20T07:05:16.709Z,41.10
2019-04-20T07:07:29.821Z,39.80
2019-04-20T07:09:59.859Z,38.70
2019-04-20T07:12:17.395Z,36.70
2019-04-20T07:14:36.679Z,35.80
2019-04-20T07:17:20.450Z,35.50
2019-04-20T07:19:31.709Z,34.70
2019-04-20T07:22:29.148Z,34.60
2019-04-20T07:24:35.118Z,33.70
2019-04-20T07:26:54.389Z,31.90
2019-04-20T07:29:15.503Z,32.80
2019-04-20T07:31:36.814Z,32.90
2019-04-20T07:34:05.624Z,32.80
2019-04-20T07:36:28.399Z,32.10
2019-04-20T07:38:55.271Z,32.20
2019-04-20T07:41:21.557Z,29.20
2019-04-20T07:43:51.166Z,29.10
2019-04-20T07:46:02.808Z,28.80
2019-04-20T07:48:23.535Z,29.30
2019-04-20T07:50:37.494Z,28.80
2019-04-20T07:53:04.371Z,26.60
2019-04-20T07:55:48.887Z,27.30
2019-04-20T07:57:53.813Z,28.00
2019-04-20T08:00:35.411Z,27.80
2019-04-20T08:03:01.432Z,26.60
2019-04-20T08:05:21.919Z,26.00
2019-04-20T08:07:39.140Z,26.10
2019-04-20T08:09:57.331Z,26.70
2019-04-20T08:12:51.845Z,26.50
2019-04-20T08:15:13.375Z,25.60
2019-04-20T08:17:40.432Z,25.00
2019-04-20T08:19:51.171Z,25.30
2019-04-20T08:22:23.050Z,25.10
2019-04-20T08:24:41.001Z,25.40
2019-04-20T08:26:51.969Z,25.70
2019-04-20T08:29:25.442Z,25.20
2019-04-20T08:31:55.910Z,25.60
2019-04-20T08:34:27.653Z,25.60
2019-04-20T08:36:51.064Z,25.30
2019-04-20T08:39:24.527Z,25.70
2019-04-20T08:41:29.779Z,25.60
2019-04-20T08:43:58.487Z,24.10
2019-04-20T08:46:20.475Z,22.50
2019-04-20T08:48:46.321Z,23.80
2019-04-20T08:51:08.991Z,24.10
2019-04-20T08:53:30.829Z,23.90
2019-04-20T08:55:49.103Z,23.90
2019-04-20T08:57:58.029Z,23.60
2019-04-20T09:00:30.878Z,22.70
2019-04-20T09:02:51.693Z,22.10
2019-04-20T09:05:26.532Z,22.00
2019-04-20T09:07:39.106Z,21.80
2019-04-20T09:10:16.587Z,22.70
2019-04-20T09:12:35.753Z,22.90
2019-04-20T09:14:42.921Z,23.20
2019-04-20T09:17:13.840Z,23.60
2019-04-20T09:19:44.744Z,22.90
2019-04-20T09:22:13.312Z,23.90
2019-04-20T09:24:43.437Z,22.70
2019-04-20T09:27:04.602Z,22.90
2019-04-20T09:29:31.918Z,23.10
2019-04-20T09:31:51.970Z,22.90
2019-04-20T09:34:20.354Z,22.70
2019-04-20T09:36:47.206Z,23.60
2019-04-20T09:39:15.022Z,22.90
2019-04-20T09:41:59.748Z,22.40
2019-04-20T09:44:07.111Z,22.20
2019-04-20T09:46:30.940Z,22.00
2019-04-20T09:48:57.905Z,22.20
2019-04-20T09:51:30.443Z,22.20
2019-04-20T09:53:50.573Z,22.40
2019-04-20T09:56:19.611Z,22.40
2019-04-20T09:58:45.159Z,22.10
2019-04-20T10:01:03.172Z,22.10
2019-04-20T10:03:13.090Z,22.40
2019-04-20T10:05:35.718Z,22.10
2019-04-20T10:08:01.230Z,22.50
2019-04-20T10:10:28.756Z,22.20
2019-04-20T10:12:44.030Z,21.70
2019-04-20T10:15:12.419Z,22.10
2019-04-20T10:17:31.670Z,22.40
2019-04-20T10:19:53.706Z,22.00
2019-04-20T10:22:15.274Z,21.50
2019-04-20T10:24:36.970Z,21.70
2019-04-20T10:26:58.896Z,21.10
2019-04-20T10:29:21.544Z,21.80
2019-04-20T10:31:50.485Z,21.50
2019-04-20T10:34:07.654Z,22.40
2019-04-20T10:36:43.757Z,22.20
2019-04-20T10:39:08.631Z,21.50
2019-04-20T10:41:40.895Z,21.30
2019-04-20T10:43:53.510Z,21.30
2019-04-20T10:46:15.510Z,21.80
2019-04-20T10:48:41.757Z,21.00
2019-04-20T10:51:01.111Z,21.10
2019-04-20T10:53:23.805Z,21.00
2019-04-20T10:55:45.603Z,21.10
2019-04-20T10:58:07.421Z,20.50
2019-04-20T11:00:41.949Z,21.40
2019-04-20T11:03:03.832Z,21.40
2019-04-20T11:05:26.517Z,20.60
2019-04-20T11:07:48.860Z,20.70
2019-04-20T11:10:17.905Z,20.80
2019-04-20T11:12:34.557Z,21.20
2019-04-20T11:14:56.464Z,21.00
2019-04-20T11:17:18.404Z,20.80
2019-04-20T11:19:41.134Z,21.30
2019-04-20T11:22:04.129Z,21.30
2019-04-20T11:24:26.104Z,22.00
2019-04-20T11:26:47.894Z,22.30
2019-04-20T11:29:10.566Z,22.30
2019-04-20T11:31:39.097Z,20.80
2019-04-20T11:33:56.320Z,20.60
2019-04-20T11:36:19.178Z,21.20
2019-04-20T11:38:40.911Z,21.40
2019-04-20T11:41:11.186Z,21.30
2019-04-20T11:43:26.105Z,21.90
2019-04-20T11:45:48.908Z,21.60
2019-04-20T11:48:11.643Z,21.40
2019-04-20T11:50:33.689Z,22.00
2019-04-20T11:52:55.465Z,22.00
2019-04-20T11:55:18.076Z,21.60
2019-04-20T11:57:40.212Z,21.70
2019-04-20T12:00:03.606Z,21.70
2019-04-20T12:02:42.248Z,21.60
2019-04-20T12:05:12.846Z,21.80
2019-04-20T12:07:25.179Z,22.10
2019-04-20T12:09:47.330Z,22.20
2019-04-20T12:12:22.409Z,22.10
2019-04-20T12:14:32.710Z,22.10
2019-04-20T12:16:55.466Z,20.70
2019-04-20T12:19:17.130Z,20.90
2019-04-20T12:21:39.116Z,20.80
2019-04-20T12:24:02.391Z,20.60
2019-04-20T12:26:24.821Z,20.90
2019-04-20T12:28:47.576Z,21.00
2019-04-20T12:31:13.679Z,21.60
2019-04-20T12:33:32.819Z,21.30
2019-04-20T12:35:54.450Z,21.30
2019-04-20T12:38:17.154Z,21.60
2019-04-20T12:40:39.825Z,21.90
2019-04-20T12:43:01.750Z,21.90
2019-04-20T12:45:23.886Z,21.60
2019-04-20T12:47:47.063Z,21.30
2019-04-20T12:50:09.739Z,21.30
2019-04-20T12:52:32.419Z,21.80
2019-04-20T12:54:54.542Z,21.30
2019-04-20T12:57:16.606Z,21.80
2019-04-20T12:59:39.288Z,22.10
2019-04-20T13:02:01.814Z,22.30
2019-04-20T13:04:24.590Z,22.40
2019-04-20T13:06:46.983Z,22.30
2019-04-20T13:09:10.600Z,22.30
2019-04-20T13:11:44.136Z,21.70
2019-04-20T13:14:24.326Z,22.00
2019-04-20T13:16:49.068Z,21.40
2019-04-20T13:19:11.024Z,21.90
2019-04-20T13:21:32.954Z,21.30
2019-04-20T13:23:55.304Z,21.20
2019-04-20T13:26:19.189Z,21.60
2019-04-20T13:28:43.027Z,21.70
2019-04-20T13:31:06.100Z,21.40
2019-04-20T13:33:29.560Z,21.20
2019-04-20T13:35:52.340Z,21.20
2019-04-20T13:38:14.230Z,21.10
2019-04-20T13:40:37.590Z,21.20
2019-04-20T13:42:59.855Z,21.70
2019-04-20T13:45:21.364Z,21.90
2019-04-20T13:47:43.218Z,21.40
2019-04-20T13:50:07.169Z,20.90
2019-04-20T13:52:28.838Z,20.90
2019-04-20T13:54:51.779Z,21.40
2019-04-20T13:57:31.597Z,21.00
2019-04-20T14:00:02.254Z,21.10
2019-04-20T14:02:33.088Z,21.10
2019-04-20T14:04:59.363Z,21.40
2019-04-20T14:07:22.021Z,20.90
2019-04-20T14:09:43.632Z,20.80
2019-04-20T14:12:17.302Z,20.50
2019-04-20T14:14:29.002Z,20.60
2019-04-20T14:16:50.657Z,20.80
2019-04-20T14:19:14.231Z,20.60
2019-04-20T14:21:36.402Z,20.20
2019-04-20T14:23:59.143Z,20.50
2019-04-20T14:26:20.987Z,20.40
2019-04-20T14:28:42.940Z,20.20
2019-04-20T14:31:05.689Z,20.20
2019-04-20T14:33:28.616Z,20.40
2019-04-20T14:35:50.631Z,20.80
2019-04-20T14:38:13.127Z,20.50
2019-04-20T14:40:35.030Z,20.40
2019-04-20T14:42:58.277Z,20.40
2019-04-20T14:45:20.677Z,20.60
2019-04-20T14:47:43.704Z,20.30
2019-04-20T14:50:05.714Z,20.00
2019-04-20T14:52:27.256Z,19.60
2019-04-20T14:54:49.786Z,19.50
2019-04-20T14:57:11.786Z,19.40
2019-04-20T14:59:35.856Z,19.50
2019-04-20T15:02:06.515Z,19.40
2019-04-20T15:04:30.757Z,19.50
2019-04-20T15:06:52.907Z,19.20
2019-04-20T15:09:14.807Z,19.20
2019-04-20T15:11:39.223Z,19.50
2019-04-20T15:14:00.707Z,19.00
2019-04-20T15:16:22.563Z,19.20
2019-04-20T15:18:51.368Z,19.20
2019-04-20T15:21:17.636Z,19.10
2019-04-20T15:23:39.507Z,18.90
2019-04-20T15:26:02.414Z,19.10
2019-04-20T15:28:24.208Z,19.40
2019-04-20T15:30:46.005Z,19.10
2019-04-20T15:33:07.627Z,18.70
2019-04-20T15:35:30.197Z,19.00
2019-04-20T15:37:52.978Z,19.30
2019-04-20T15:40:15.140Z,18.60
2019-04-20T15:42:49.624Z,18.80
2019-04-20T15:45:01.173Z,18.50
2019-04-20T15:47:22.868Z,18.50
2019-04-20T15:49:46.187Z,18.20
2019-04-20T15:52:08.134Z,18.10
2019-04-20T15:54:29.841Z,18.20
2019-04-20T15:56:56.961Z,17.80
2019-04-20T15:59:34.765Z,18.20
2019-04-20T16:02:11.507Z,18.20
2019-04-20T16:04:52.598Z,18.20
2019-04-20T16:07:15.157Z,18.00
2019-04-20T16:09:37.907Z,17.60
2019-04-20T16:11:59.770Z,17.70
2019-04-20T16:14:21.632Z,17.70
2019-04-20T16:16:44.484Z,17.50
2019-04-20T16:19:15.930Z,17.10
2019-04-20T16:21:33.511Z,17.30
2019-04-20T16:23:55.039Z,17.30
2019-04-20T16:26:19.709Z,17.10
2019-04-20T16:28:41.701Z,17.20
2019-04-20T16:31:06.563Z,17.20
2019-04-20T16:33:28.437Z,16.80
2019-04-20T16:35:50.218Z,16.70
2019-04-20T16:38:38.322Z,16.90
2019-04-20T16:41:00.074Z,16.70
2019-04-20T16:43:29.443Z,16.70
2019-04-20T16:45:45.401Z,16.90
2019-04-20T16:48:08.337Z,16.70
2019-04-20T16:50:31.111Z,16.60
2019-04-20T16:52:52.858Z,16.80
2019-04-20T16:55:16.674Z,17.00
2019-04-20T16:57:39.451Z,17.30
2019-04-20T17:00:03.065Z,17.10
2019-04-20T17:02:24.695Z,17.00
2019-04-20T17:04:47.476Z,17.20
2019-04-20T17:07:18.633Z,17.20
2019-04-20T17:09:41.938Z,17.60
2019-04-20T17:12:03.657Z,17.50
2019-04-20T17:14:25.643Z,17.50
2019-04-20T17:16:47.093Z,17.70
2019-04-20T17:19:09.651Z,17.80
2019-04-20T17:21:32.564Z,18.20
2019-04-20T17:23:55.432Z,18.40
2019-04-20T17:26:35.213Z,18.30
2019-04-20T17:29:01.875Z,18.40
2019-04-20T17:31:29.344Z,18.90
2019-04-20T17:34:01.434Z,19.20
2019-04-20T17:36:21.557Z,19.50
2019-04-20T17:38:46.707Z,20.00
2019-04-20T17:41:23.663Z,20.10
2019-04-20T17:43:35.128Z,20.40
2019-04-20T17:45:59.577Z,20.50
2019-04-20T17:48:26.990Z,20.90
2019-04-20T17:51:00.122Z,21.10
2019-04-20T17:53:14.787Z,21.30
2019-04-20T17:55:40.443Z,21.50
2019-04-20T17:57:57.431Z,21.70
2019-04-20T18:00:22.442Z,21.90
2019-04-20T18:03:06.175Z,21.90
2019-04-20T18:05:33.821Z,22.00
2019-04-20T18:07:49.804Z,22.30
2019-04-20T18:10:17.451Z,22.50
2019-04-20T18:12:26.892Z,22.70
2019-04-20T18:14:58.088Z,23.00
2019-04-20T18:17:32.037Z,23.10
2019-04-20T18:19:46.895Z,23.60
2019-04-20T18:22:12.170Z,23.80
2019-04-20T18:24:55.792Z,24.10
2019-04-20T18:27:18.777Z,24.20
2019-04-20T18:29:41.015Z,24.40
2019-04-20T18:31:59.692Z,24.70
2019-04-20T18:34:28.772Z,24.70
2019-04-20T18:36:51.475Z,24.90
2019-04-20T18:39:18.030Z,25.20
2019-04-20T18:41:45.581Z,25.80
2019-04-20T18:44:02.696Z,25.80
2019-04-20T18:46:49.440Z,25.60
2019-04-20T18:49:04.845Z,25.60
2019-04-20T18:51:12.286Z,25.90
2019-04-20T18:53:39.226Z,25.70
2019-04-20T18:55:59.470Z,25.70
2019-04-20T18:58:20.412Z,25.90
2019-04-20T19:00:47.093Z,26.50
2019-04-20T19:03:13.179Z,26.10
2019-04-20T19:05:31.545Z,26.40
2019-04-20T19:08:01.567Z,26.50
2019-04-20T19:10:27.514Z,26.70
2019-04-20T19:12:52.308Z,26.90
2019-04-20T19:15:33.286Z,26.80
2019-04-20T19:17:59.131Z,26.80
2019-04-20T19:20:27.551Z,26.90
2019-04-20T19:22:48.453Z,27.00
2019-04-20T19:25:16.997Z,27.30
2019-04-20T19:27:40.108Z,27.20
2019-04-20T19:30:11.777Z,27.20
2019-04-20T19:32:38.263Z,27.10
2019-04-20T19:34:59.349Z,27.00
2019-04-20T19:37:22.434Z,26.80
2019-04-20T19:39:49.447Z,27.00
2019-04-20T19:42:11.762Z,27.00
2019-04-20T19:44:40.756Z,27.60
2019-04-20T19:47:10.558Z,28.40
2019-04-20T19:49:25.458Z,28.40
2019-04-20T19:52:04.208Z,28.60
2019-04-20T19:54:20.225Z,28.30
2019-04-20T19:56:37.355Z,27.90
2019-04-20T19:58:59.014Z,27.80
2019-04-20T20:01:09.829Z,27.90
2019-04-20T20:03:31.230Z,28.00
2019-04-20T20:05:55.323Z,28.50
2019-04-20T20:08:21.901Z,28.40
2019-04-20T20:10:42.759Z,28.40
2019-04-20T20:13:04.392Z,28.60
2019-04-20T20:15:32.038Z,28.70
2019-04-20T20:18:12.432Z,29.40
2019-04-20T20:20:36.063Z,29.30
2019-04-20T20:22:41.133Z,29.60
2019-04-20T20:24:59.261Z,30.00
2019-04-20T20:27:31.486Z,30.40
2019-04-20T20:29:57.123Z,30.30
2019-04-20T20:32:17.823Z,30.20
2019-04-20T20:34:39.811Z,30.20
2019-04-20T20:37:00.522Z,30.40
2019-04-20T20:39:24.269Z,30.90
2019-04-20T20:41:52.894Z,30.20
2019-04-20T20:44:26.170Z,29.80
2019-04-20T20:46:43.922Z,29.80
2019-04-20T20:49:16.154Z,30.00
2019-04-20T20:51:46.669Z,29.70
2019-04-20T20:53:56.493Z,29.60
2019-04-20T20:56:18.015Z,29.60
2019-04-20T20:58:46.703Z,29.60
2019-04-20T21:01:04.334Z,29.40
2019-04-20T21:03:25.620Z,29.20
2019-04-20T21:05:42.309Z,28.90
2019-04-20T21:08:03.850Z,29.10
2019-04-20T21:10:31.977Z,29.00
2019-04-20T21:12:53.802Z,29.10
2019-04-20T21:15:16.965Z,28.80
2019-04-20T21:17:41.545Z,28.70
2019-04-20T21:20:15.752Z,28.70
2019-04-20T21:22:45.014Z,28.70
2019-04-20T21:24:51.394Z,28.70
2019-04-20T21:27:18.045Z,28.60
2019-04-20T21:29:46.556Z,28.60
2019-04-20T21:32:08.186Z,28.70
2019-04-20T21:34:25.557Z,28.50
2019-04-20T21:36:47.299Z,28.50
2019-04-20T21:39:18.110Z,28.70
2019-04-20T21:41:33.629Z,28.90
2019-04-20T21:43:55.995Z,28.80
2019-04-20T21:46:18.738Z,28.60
2019-04-20T21:48:57.167Z,28.80
2019-04-20T21:51:18.971Z,28.80
2019-04-20T21:53:32.986Z,29.00
2019-04-20T21:55:52.072Z,29.20
2019-04-20T21:58:14.098Z,29.00
2019-04-20T22:00:42.573Z,29.00
2019-04-20T22:03:04.563Z,29.10
2019-04-20T22:05:25.301Z,29.30
2019-04-20T22:07:48.503Z,29.50
2019-04-20T22:10:11.610Z,29.40
2019-04-20T22:12:39.818Z,29.70
2019-04-20T22:15:03.613Z,30.10
2019-04-20T22:17:25.942Z,30.00
2019-04-20T22:19:52.689Z,30.30
2019-04-20T22:22:18.318Z,30.60
2019-04-20T22:24:44.983Z,30.90
2019-04-20T22:27:05.054Z,30.30
2019-04-20T22:29:16.558Z,30.60
2019-04-20T22:31:38.295Z,31.00
2019-04-20T22:34:00.839Z,31.70
2019-04-20T22:36:26.043Z,31.30
2019-04-20T22:39:05.461Z,30.30
2019-04-20T22:41:28.322Z,30.40
2019-04-20T22:43:50.436Z,30.60
2019-04-20T22:46:12.956Z,31.10
2019-04-20T22:48:40.519Z,31.60
2019-04-20T22:51:14.294Z,31.90
2019-04-20T22:53:36.416Z,32.10
2019-04-20T22:56:08.755Z,32.40
2019-04-20T22:58:23.557Z,32.50
2019-04-20T23:00:44.843Z,32.70
2019-04-20T23:02:54.897Z,32.70
2019-04-20T23:05:16.796Z,32.60
2019-04-20T23:07:38.975Z,33.00
2019-04-20T23:10:03.088Z,32.20
2019-04-20T23:12:25.706Z,32.20
2019-04-20T23:14:46.660Z,32.20
2019-04-20T23:17:08.361Z,32.10
2019-04-20T23:19:39.157Z,32.20
2019-04-20T23:21:59.681Z,32.50
2019-04-20T23:24:17.085Z,32.20
2019-04-20T23:26:42.182Z,32.20
2019-04-20T23:29:02.782Z,32.40
2019-04-20T23:31:25.668Z,32.30
2019-04-20T23:33:47.830Z,32.70
2019-04-20T23:36:11.152Z,32.80
2019-04-20T23:38:32.737Z,32.80
2019-04-20T23:40:55.481Z,31.90
2019-04-20T23:43:26.371Z,32.00
2019-04-20T23:45:52.736Z,32.10
2019-04-20T23:48:35.979Z,31.80
2019-04-20T23:51:10.262Z,31.80
2019-04-20T23:53:35.115Z,31.60
2019-04-20T23:55:41.632Z,31.70
2019-04-20T23:58:06.886Z,31.70
